KMKC/MKC METAR and TAF weather

Enter ICAO airport designator
Station Type Date Time Source
KMKC METAR 2020/02/29 02:54 UTC NOAA

KMKC 290254Z 01007KT 10SM CLR 07/M02 A3022 RMK AO2 SLP237 T00671017 53022


Station Type Date Time Source
KMKC Decoded METAR 2020/02/29 02:54 UTC NOAA

KANSAS CITY DOWNTOWN AIRPORT , MO, United States (KMKC) 39-07N 094-36W 227M
Feb 28, 2020 - 09:54 PM EST / 2020.02.29 0254 UTC
Wind: from the N (010 degrees) at 8 MPH (7 KT):0
Visibility: 10 mile(s):0
Sky conditions: clear
Temperature: 44.1 F (6.7 C)
Dew Point: 28.9 F (-1.7 C)
Relative Humidity: 54%
Pressure (altimeter): 30.22 in. Hg (1023 hPa)
Pressure tendency: 0.06 inches (2.2 hPa) higher than three hours ago
ob: KMKC 290254Z 01007KT 10SM CLR 07/M02 A3022 RMK AO2 SLP237 T00671017 53022
cycle: 3

Station Type Date Time Source
KMKC TAF 2020/02/28 18:22 UTC NOAA

TAF KMKC 281720Z 2818/2918 30009KT P6SM SCT070
FM290200 15005KT P6SM FEW050

Example: see airport list